createdAt,value
2023-01-08T00:11:15.382Z,17.42
2023-01-08T00:13:42.623Z,11.85
2023-01-08T00:16:11.092Z,19.33
2023-01-08T00:23:29.581Z,17.77
2023-01-08T00:28:22.246Z,16.02
2023-01-08T00:30:49.416Z,21.17
2023-01-08T00:35:42.025Z,15.70
2023-01-08T00:41:10.030Z,9.70
2023-01-08T00:43:37.028Z,12.65
2023-01-08T00:50:56.979Z,15.13
2023-01-08T00:53:24.097Z,12.02
2023-01-08T00:55:51.072Z,20.42
2023-01-08T00:58:18.104Z,21.98
2023-01-08T01:10:27.583Z,18.65
2023-01-08T01:12:54.581Z,9.80
2023-01-08T01:15:21.747Z,15.02
2023-01-08T01:17:48.874Z,13.30
2023-01-08T01:20:16.483Z,13.20
2023-01-08T01:32:25.845Z,16.23
2023-01-08T01:34:52.993Z,10.27
2023-01-08T01:37:20.107Z,10.23
2023-01-08T01:39:47.235Z,11.75
2023-01-08T01:45:00.892Z,8.65
2023-01-08T01:47:33.342Z,9.68
2023-01-08T01:50:05.976Z,7.70
2023-01-08T01:52:34.856Z,12.32
2023-01-08T01:55:02.384Z,11.13
2023-01-08T01:57:31.182Z,11.60
2023-01-08T01:59:58.798Z,14.43
2023-01-08T02:04:51.679Z,16.95
2023-01-08T02:07:27.841Z,13.43
2023-01-08T02:18:41.666Z,16.70
2023-01-08T02:21:10.592Z,18.98
2023-01-08T02:23:43.554Z,18.33
2023-01-08T02:28:41.310Z,16.55
2023-01-08T02:31:08.857Z,17.85
2023-01-08T02:33:36.252Z,14.02
2023-01-08T02:36:22.144Z,19.73
2023-01-08T02:41:44.100Z,9.70
2023-01-08T02:46:45.423Z,16.92
2023-01-08T02:49:14.081Z,14.00
2023-01-08T02:51:47.009Z,8.30
2023-01-08T02:54:16.851Z,14.00
2023-01-08T02:59:13.893Z,13.68
2023-01-08T03:01:41.742Z,8.32
2023-01-08T03:04:11.993Z,10.88
2023-01-08T03:06:38.956Z,8.45
2023-01-08T03:09:09.086Z,9.70
2023-01-08T03:11:46.713Z,8.05
2023-01-08T03:14:18.715Z,6.60
2023-01-08T03:16:47.461Z,8.57
2023-01-08T03:19:21.981Z,3.55
2023-01-08T03:34:04.729Z,6.15
2023-01-08T03:36:33.431Z,4.90
2023-01-08T03:41:31.251Z,4.07
2023-01-08T03:43:58.466Z,3.60
2023-01-08T03:46:29.873Z,3.50
2023-01-08T03:48:56.713Z,4.05
2023-01-08T03:51:23.562Z,2.78
2023-01-08T03:58:42.063Z,4.13
2023-01-08T04:01:09.104Z,5.25
2023-01-08T04:13:18.371Z,4.38
2023-01-08T04:15:51.911Z,3.80
2023-01-08T04:18:19.116Z,3.08
2023-01-08T04:20:46.812Z,3.20
2023-01-08T04:23:13.938Z,5.47
2023-01-08T04:25:41.075Z,5.43
2023-01-08T04:28:08.320Z,4.45
2023-01-08T04:30:35.318Z,4.43
2023-01-08T04:37:53.421Z,5.60
2023-01-08T04:40:20.443Z,1.73
2023-01-08T04:42:47.473Z,5.75
2023-01-08T04:45:14.597Z,6.03
2023-01-08T04:47:41.713Z,7.60
2023-01-08T04:50:09.083Z,9.23
2023-01-08T04:52:36.443Z,8.45
2023-01-08T04:57:29.592Z,4.53
2023-01-08T04:59:56.597Z,8.45
2023-01-08T05:02:23.932Z,4.72
2023-01-08T05:04:50.947Z,5.78
2023-01-08T05:07:17.951Z,8.30
2023-01-08T05:19:27.333Z,5.50
2023-01-08T05:21:54.340Z,9.15
2023-01-08T05:26:47.029Z,8.95
2023-01-08T05:29:14.424Z,7.25
2023-01-08T05:31:41.397Z,5.68
2023-01-08T05:36:34.011Z,9.52
2023-01-08T05:39:01.225Z,9.45
2023-01-08T05:41:28.384Z,6.90
2023-01-08T05:43:55.590Z,12.25
2023-01-08T05:46:22.812Z,8.93
2023-01-08T05:53:41.088Z,5.90
2023-01-08T05:58:34.612Z,8.55
2023-01-08T06:01:03.184Z,11.48
2023-01-08T06:10:51.205Z,15.32
2023-01-08T06:13:18.557Z,16.27
2023-01-08T06:15:45.852Z,16.63
2023-01-08T06:30:59.592Z,10.60
2023-01-08T06:33:26.689Z,22.25
2023-01-08T06:38:22.359Z,17.13
2023-01-08T06:40:49.613Z,12.40
2023-01-08T06:50:34.757Z,15.02
2023-01-08T06:53:01.881Z,12.40
2023-01-08T06:55:29.082Z,10.75
2023-01-08T06:57:59.234Z,14.68
2023-01-08T07:00:27.458Z,17.98
2023-01-08T07:02:56.076Z,20.58
2023-01-08T07:05:23.595Z,20.10
2023-01-08T07:07:51.191Z,26.40
2023-01-08T07:10:19.917Z,9.95
2023-01-08T07:12:47.277Z,12.98
2023-01-08T07:15:14.477Z,14.48
2023-01-08T07:17:41.361Z,12.43
2023-01-08T07:20:09.861Z,15.65
2023-01-08T07:22:36.822Z,16.75
2023-01-08T07:25:05.381Z,19.02
2023-01-08T07:27:32.290Z,14.30
2023-01-08T07:29:59.429Z,12.02
2023-01-08T07:32:26.267Z,18.92
2023-01-08T07:34:54.999Z,19.20
2023-01-08T07:37:22.073Z,13.30
2023-01-08T07:39:49.205Z,13.15
2023-01-08T07:42:16.121Z,13.13
2023-01-08T07:44:43.349Z,18.23
2023-01-08T07:47:10.274Z,18.83
2023-01-08T07:49:37.390Z,11.85
2023-01-08T07:52:04.386Z,18.98
2023-01-08T07:54:31.359Z,20.67
2023-01-08T07:56:58.509Z,16.30
2023-01-08T07:59:25.499Z,14.80
2023-01-08T08:01:52.508Z,14.60
2023-01-08T08:04:19.658Z,13.68
2023-01-08T08:06:46.616Z,12.32
2023-01-08T08:09:13.656Z,9.55
2023-01-08T08:11:40.744Z,14.05
2023-01-08T08:14:07.772Z,11.48
2023-01-08T08:16:34.824Z,18.55
2023-01-08T08:21:29.651Z,16.63
2023-01-08T08:23:56.733Z,20.20
2023-01-08T08:26:23.650Z,15.70
2023-01-08T08:28:50.791Z,15.27
2023-01-08T08:31:17.851Z,15.18
2023-01-08T08:36:11.636Z,16.02
2023-01-08T08:38:39.042Z,16.13
2023-01-08T08:41:06.379Z,18.90
2023-01-08T08:43:33.410Z,15.02
2023-01-08T08:46:00.531Z,13.05
2023-01-08T08:53:18.787Z,15.05
2023-01-08T08:55:45.798Z,13.50
2023-01-08T08:58:13.647Z,18.17
2023-01-08T09:00:41.199Z,21.38
2023-01-08T09:03:11.390Z,22.25
2023-01-08T09:05:38.471Z,17.63
2023-01-08T09:08:05.574Z,17.05
2023-01-08T09:27:35.591Z,18.30
2023-01-08T09:30:02.801Z,17.15
2023-01-08T09:34:55.471Z,14.88
2023-01-08T09:37:23.511Z,14.30
2023-01-08T09:42:16.920Z,15.93
2023-01-08T09:44:44.647Z,13.30
2023-01-08T09:47:21.156Z,14.85
2023-01-08T09:49:49.145Z,16.27
2023-01-08T09:52:16.381Z,19.45
2023-01-08T09:57:17.236Z,11.82
2023-01-08T09:59:44.504Z,8.90
2023-01-08T10:02:13.965Z,12.23
2023-01-08T10:04:41.853Z,12.68
2023-01-08T10:07:21.721Z,13.07
2023-01-08T10:09:51.942Z,15.13
2023-01-08T10:12:25.168Z,17.08
2023-01-08T10:14:54.336Z,8.77
2023-01-08T10:17:27.688Z,14.40
2023-01-08T10:19:56.025Z,8.88
2023-01-08T10:22:28.668Z,20.33
2023-01-08T10:25:04.324Z,11.07
2023-01-08T10:27:31.798Z,16.38
2023-01-08T10:30:05.656Z,13.00
2023-01-08T10:32:34.941Z,13.32
2023-01-08T10:35:06.134Z,12.40
2023-01-08T10:45:20.570Z,11.75
2023-01-08T10:48:15.429Z,12.60
2023-01-08T10:53:23.460Z,13.18
2023-01-08T10:58:23.815Z,14.68
2023-01-08T11:00:51.128Z,14.45
2023-01-08T11:03:26.588Z,10.50
2023-01-08T11:05:53.685Z,12.57
2023-01-08T11:08:23.253Z,16.42
2023-01-08T11:10:57.477Z,12.63
2023-01-08T11:13:24.827Z,11.70
2023-01-08T11:21:11.053Z,15.07
2023-01-08T11:23:38.000Z,20.73
2023-01-08T11:28:51.249Z,14.80
2023-01-08T11:41:20.443Z,13.90
2023-01-08T11:44:13.122Z,15.45
2023-01-08T11:46:51.050Z,14.98
2023-01-08T11:49:43.608Z,19.33
2023-01-08T11:52:19.380Z,15.60
2023-01-08T12:02:26.986Z,16.08
2023-01-08T12:04:56.728Z,12.20
2023-01-08T12:07:26.130Z,18.00
2023-01-08T12:10:15.328Z,16.65
2023-01-08T12:12:51.464Z,11.95
2023-01-08T12:18:11.271Z,14.63
2023-01-08T12:23:34.996Z,18.27
2023-01-08T12:34:11.260Z,19.55
2023-01-08T12:36:42.103Z,13.00
2023-01-08T12:39:12.107Z,13.88
2023-01-08T12:41:42.232Z,18.30
2023-01-08T12:49:06.363Z,14.23
2023-01-08T12:51:53.408Z,13.48
2023-01-08T12:54:23.656Z,17.45
2023-01-08T12:56:56.181Z,11.55
2023-01-08T12:59:23.238Z,9.88
2023-01-08T13:04:23.583Z,16.13
2023-01-08T13:09:26.131Z,14.57
2023-01-08T13:11:54.345Z,11.55
2023-01-08T13:14:21.560Z,12.85
2023-01-08T13:16:49.337Z,18.38
2023-01-08T13:19:26.855Z,14.05
2023-01-08T13:21:54.835Z,21.80
2023-01-08T13:32:05.286Z,9.95
2023-01-08T13:34:40.414Z,16.95
2023-01-08T13:39:37.705Z,11.77
2023-01-08T13:49:56.087Z,17.58
2023-01-08T13:52:31.474Z,11.60
2023-01-08T13:54:58.934Z,12.90
2023-01-08T13:57:26.099Z,15.10
2023-01-08T13:59:55.507Z,15.82
2023-01-08T14:17:04.770Z,6.65
2023-01-08T14:19:32.013Z,13.82
2023-01-08T14:21:59.949Z,12.98
2023-01-08T14:24:27.037Z,13.68
2023-01-08T14:26:55.153Z,9.40
2023-01-08T14:29:21.922Z,9.65
2023-01-08T14:31:51.774Z,11.07
2023-01-08T14:34:19.810Z,14.23
2023-01-08T14:36:47.533Z,12.30
2023-01-08T14:39:23.793Z,16.77
2023-01-08T14:41:52.312Z,12.45
2023-01-08T14:44:25.973Z,9.60
2023-01-08T14:46:56.575Z,15.75
2023-01-08T14:49:33.991Z,15.65
2023-01-08T14:54:30.777Z,14.27
2023-01-08T15:04:26.302Z,18.75
2023-01-08T15:06:54.041Z,14.00
2023-01-08T15:19:20.267Z,14.70
2023-01-08T15:24:32.238Z,6.53
2023-01-08T15:37:00.625Z,5.07
2023-01-08T15:39:29.417Z,7.43
2023-01-08T15:44:40.541Z,6.57
2023-01-08T15:47:08.663Z,7.07
2023-01-08T15:49:35.676Z,8.88
2023-01-08T15:52:02.642Z,4.22
2023-01-08T15:54:29.646Z,5.18
2023-01-08T16:02:00.115Z,4.63
2023-01-08T16:09:31.512Z,5.13
2023-01-08T16:11:58.474Z,3.92
2023-01-08T16:21:51.585Z,7.55
2023-01-08T16:24:18.825Z,11.30
2023-01-08T16:43:48.026Z,3.85
2023-01-08T16:46:18.162Z,4.55
2023-01-08T16:51:13.078Z,4.10
2023-01-08T16:53:42.635Z,2.85
2023-01-08T16:56:10.130Z,8.73
2023-01-08T16:58:37.488Z,7.60
2023-01-08T17:01:08.406Z,4.82
2023-01-08T17:06:05.445Z,4.78
2023-01-08T17:08:32.470Z,5.97
2023-01-08T17:10:59.694Z,5.35
2023-01-08T17:13:26.682Z,8.60
2023-01-08T17:15:53.745Z,10.80
2023-01-08T17:28:19.408Z,8.18
2023-01-08T17:30:46.680Z,8.18
2023-01-08T17:33:14.710Z,7.47
2023-01-08T17:35:41.719Z,6.80
2023-01-08T17:38:08.894Z,4.78
2023-01-08T17:40:36.377Z,4.30
2023-01-08T17:43:03.516Z,7.70
2023-01-08T17:47:56.068Z,5.00
2023-01-08T17:50:23.073Z,7.18
2023-01-08T17:52:50.073Z,4.10
2023-01-08T17:55:17.214Z,7.03
2023-01-08T17:57:44.401Z,4.90
2023-01-08T18:02:37.141Z,1.95
2023-01-08T18:05:04.558Z,5.60
2023-01-08T18:07:33.981Z,10.88
2023-01-08T18:12:27.553Z,4.47
2023-01-08T18:14:54.888Z,5.72
2023-01-08T18:17:21.910Z,4.55
2023-01-08T18:19:49.126Z,6.20
2023-01-08T18:22:16.133Z,4.63
2023-01-08T18:24:44.014Z,4.25
2023-01-08T18:27:11.860Z,7.68
2023-01-08T18:29:38.970Z,4.30
2023-01-08T18:34:31.677Z,9.60
2023-01-08T18:36:58.810Z,4.68
2023-01-08T18:44:37.177Z,4.57
2023-01-08T18:47:04.361Z,7.18
2023-01-08T18:49:31.463Z,4.30
2023-01-08T18:51:58.470Z,5.82
2023-01-08T18:54:25.483Z,8.82
2023-01-08T18:56:52.561Z,13.48
2023-01-08T18:59:19.807Z,3.92
2023-01-08T19:01:47.083Z,15.38
2023-01-08T19:04:16.618Z,12.32
2023-01-08T19:09:09.261Z,14.68
2023-01-08T19:11:36.652Z,9.95
2023-01-08T19:16:29.308Z,9.60
2023-01-08T19:18:56.717Z,10.32
2023-01-08T19:23:49.163Z,6.95
2023-01-08T19:26:16.661Z,11.75
2023-01-08T19:28:43.980Z,7.10
2023-01-08T19:31:12.415Z,6.45
2023-01-08T19:33:39.797Z,7.18
2023-01-08T19:43:44.371Z,5.55
2023-01-08T19:46:15.740Z,3.28
2023-01-08T19:48:44.320Z,15.93
2023-01-08T19:51:13.185Z,7.90
2023-01-08T19:53:43.309Z,11.13
2023-01-08T19:56:11.561Z,8.52
2023-01-08T19:58:38.677Z,7.20
2023-01-08T20:01:16.470Z,6.15
2023-01-08T20:03:43.720Z,8.95
2023-01-08T20:06:13.577Z,6.22
2023-01-08T20:18:31.609Z,10.50
2023-01-08T20:26:29.046Z,9.38
2023-01-08T20:31:23.607Z,7.32
2023-01-08T20:33:50.764Z,7.38
2023-01-08T20:36:19.197Z,20.13
2023-01-08T20:38:46.314Z,18.73
2023-01-08T20:41:13.575Z,18.67
2023-01-08T20:43:41.172Z,10.10
2023-01-08T20:46:10.291Z,11.48
2023-01-08T20:48:46.997Z,9.50
2023-01-08T20:51:14.562Z,5.55
2023-01-08T20:53:41.899Z,10.40
2023-01-08T20:56:11.394Z,10.38
2023-01-08T20:58:39.529Z,13.15
2023-01-08T21:03:35.178Z,9.38
2023-01-08T21:08:36.423Z,13.10
2023-01-08T21:11:04.999Z,13.93
2023-01-08T21:16:01.991Z,10.77
2023-01-08T21:18:31.863Z,16.13
2023-01-08T21:25:57.797Z,9.77
2023-01-08T21:28:26.186Z,5.07
2023-01-08T21:30:53.623Z,16.85
2023-01-08T21:48:23.154Z,12.52
2023-01-08T21:50:50.296Z,23.10
2023-01-08T22:03:20.400Z,14.88
2023-01-08T22:25:35.130Z,10.70
2023-01-08T22:30:27.827Z,14.85
2023-01-08T22:32:54.690Z,14.55
2023-01-08T22:37:47.510Z,13.50
2023-01-08T22:40:14.713Z,14.30
2023-01-08T22:42:41.881Z,19.00
2023-01-08T22:45:09.246Z,16.17
2023-01-08T22:47:36.231Z,11.10
2023-01-08T22:52:29.061Z,23.27
2023-01-08T22:54:56.534Z,15.05
2023-01-08T22:59:49.115Z,16.85
2023-01-08T23:02:24.451Z,16.98
2023-01-08T23:04:51.599Z,13.87
2023-01-08T23:07:19.005Z,20.95
2023-01-08T23:09:46.479Z,18.23
2023-01-08T23:12:14.347Z,16.10
2023-01-08T23:14:41.825Z,20.67
2023-01-08T23:22:00.540Z,17.45
2023-01-08T23:24:28.159Z,13.65
2023-01-08T23:26:55.288Z,16.15
2023-01-08T23:29:22.177Z,24.08
2023-01-08T23:36:41.058Z,21.77
2023-01-08T23:39:08.227Z,24.67
2023-01-08T23:41:35.508Z,21.40
2023-01-08T23:46:31.209Z,22.17
2023-01-08T23:48:58.332Z,23.17
2023-01-08T23:53:53.849Z,18.83
2023-01-08T23:56:21.128Z,11.95
